Allenton, Wisconsin
Current Conditions -  °F | °C
As of 10:35 PM on Friday 24 Oct 2014 (Local Time) from KETB Reporting Station
Overcast Overcast  
Wind Chill: 57°   Ceiling: 3500
Heat Index: 57°   Visibility: 10mi
Dew Point: 48°   Wind: 7mph
Humidity: 72%   Direction: 210°SSW
Pressure: 29.89"   Gusts: NA
Location:  43.42°N, 88.34°W
Report Text: KETB 250335Z AUTO 21006KT 10SM OVC035 14/09 A2989 RMK AO2
Loading
Personal Weather Stations






























Interactive Weather Map New forecast layout! Learn more

10-Day Weather Forecast

Advertisements
Track Severe Weather on mobile